map of FNA home
FNA - Airport
Location
City:  Freetown, Sierra Leone
Name:Lungi International Airport
ICAO:GFLL
IATA:FNA

Details
Type:Airport (Aerodrome, Airfield)
Use:Public/Civil, International (customs port of entry)
Latitude:836'59"N (8.616444)
Longitude:1311'44"W (-13.195488)
Datum:WGS 1984
Elevation:84 ft (26 m)
Variation:6.99W (WMM2015 magnetic declination)
0.11 annual change
Runways:1
Longest:10498 × 150 ft (3200 × 45.5 m), paved

Time
Time Zone:UTC+0
Local Time:

Weather
TAF:GFLL 211700Z 2118/2200 30008KT 8000 HZ NSC
FM212000 33007KT 9999 FEW012
TEMPO 2204/2208 14006KT 5000 BR SCT011

Related Locations
Nearby:
Farthest:SCZ: 12273 mi / 19751 km
Santa Cruz/Graciosa Bay/Luova, Santa Cruz Island, SB

Find:

   beyond  
but within

Other Information
Maps:
NOTAMs:
Links:
Sources:

  
  • flag of Sierra Leone
  

Sectional Chart

Flight Planning
at skyvector.com

Satellite Image

Google Maps Satellite view

 

Copyright © 2004-2019 Karl L. Swartz. All rights reserved.
The Great Circle Mapper name and logo are trademarks of the Great Circle Mapper.
All other trademarks mentioned herein belong to their respective owners.
Please see credits for attibutions and further copyright information.

  Follow gcmap on Facebook Follow gcmap on Twitter Follow gcmap on Google+ GCmap on LinkedIn

hCard Microformat

Geo Microformat